Time;durP1;ratioP1;P1;durP2;ratioP2;P2;SDS_P1;SDS_P2;PMS_P1;PMS_P2;Temp;Humidity;BMP_temperature;BMP_pressure;BME280_temperature;BME280_humidity;BME280_pressure;Samples;Min_cycle;Max_cycle;Signal;HPM_P1;HPM_P2
2021/12/20 00:00:02;;;;;;;5.07;4.07;;;10.00;85.00;;;;;;974358;146;27302;-74
2021/12/20 00:02:29;;;;;;;5.10;3.63;;;10.00;85.10;;;;;;961169;148;27416;-74
2021/12/20 00:04:55;;;;;;;3.70;3.40;;;10.00;85.30;;;;;;941588;150;27343;-74
2021/12/20 00:07:22;;;;;;;4.97;3.97;;;10.00;85.30;;;;;;943479;149;27344;-74
2021/12/20 00:09:48;;;;;;;4.47;3.80;;;10.00;85.30;;;;;;959003;145;27438;-74
2021/12/20 00:12:15;;;;;;;4.23;3.80;;;10.00;85.10;;;;;;941128;150;27493;-74
2021/12/20 00:14:42;;;;;;;4.50;4.10;;;10.00;85.10;;;;;;959552;148;27423;-74
2021/12/20 00:17:08;;;;;;;6.77;3.80;;;10.00;85.20;;;;;;970720;146;27430;-74
2021/12/20 00:19:35;;;;;;;3.93;3.53;;;9.90;85.40;;;;;;972898;146;27369;-74
2021/12/20 00:22:04;;;;;;;4.50;4.10;;;9.90;85.60;;;;;;968170;146;27387;-74
2021/12/20 00:24:31;;;;;;;4.10;3.70;;;9.90;85.70;;;;;;969266;146;27324;-74
2021/12/20 00:26:57;;;;;;;4.50;4.10;;;9.90;85.70;;;;;;971410;146;27878;-74
2021/12/20 00:29:27;;;;;;;4.97;4.20;;;9.90;85.70;;;;;;971127;146;27383;-74
2021/12/20 00:31:53;;;;;;;6.10;4.13;;;9.90;85.80;;;;;;971293;145;27323;-74
2021/12/20 00:34:20;;;;;;;4.47;3.83;;;9.90;85.90;;;;;;966270;146;27428;-74
2021/12/20 00:36:56;;;;;;;4.57;3.93;;;9.90;85.90;;;;;;976180;146;27317;-74
2021/12/20 00:41:58;;;;;;;3.70;3.40;;;9.90;86.20;;;;;;968532;146;27349;-74
2021/12/20 00:44:24;;;;;;;3.57;3.27;;;9.90;86.10;;;;;;967522;146;27776;-74
2021/12/20 00:46:51;;;;;;;4.00;3.40;;;9.90;86.20;;;;;;972396;146;27242;-74
2021/12/20 00:49:17;;;;;;;3.50;3.20;;;9.90;86.30;;;;;;963367;145;27418;-74
2021/12/20 00:51:44;;;;;;;3.90;3.50;;;9.90;86.30;;;;;;964491;147;27365;-74
2021/12/20 00:54:10;;;;;;;3.67;3.30;;;9.80;86.30;;;;;;966914;147;27382;-74
2021/12/20 00:56:37;;;;;;;3.67;3.37;;;9.90;86.30;;;;;;961781;147;27361;-74
2021/12/20 00:59:04;;;;;;;3.67;2.63;;;9.80;86.40;;;;;;963220;147;27310;-74
2021/12/20 01:01:30;;;;;;;3.73;3.30;;;9.80;86.20;;;;;;962524;147;27393;-74
2021/12/20 01:03:57;;;;;;;4.30;3.00;;;9.90;85.70;;;;;;960781;147;27297;-74
2021/12/20 01:06:23;;;;;;;3.50;3.20;;;9.90;86.30;;;;;;961327;147;27355;-74
2021/12/20 01:08:51;;;;;;;2.87;2.63;;;9.90;86.40;;;;;;962735;147;27375;-74
2021/12/20 01:11:22;;;;;;;4.37;3.17;;;9.90;86.30;;;;;;961900;147;27385;-74
2021/12/20 01:13:43;;;;;;;3.23;2.90;;;9.90;86.30;;;;;;964032;147;27305;-74
2021/12/20 01:16:12;;;;;;;3.27;2.97;;;9.80;86.20;;;;;;963008;147;27342;-74
2021/12/20 01:18:36;;;;;;;3.37;3.07;;;9.90;86.40;;;;;;960178;146;27294;-74
2021/12/20 01:21:03;;;;;;;3.50;3.20;;;9.80;86.30;;;;;;961128;147;27271;-74
2021/12/20 01:23:29;;;;;;;3.03;2.77;;;9.80;86.40;;;;;;962594;147;27308;-74
2021/12/20 01:25:56;;;;;;;3.27;2.90;;;9.80;86.40;;;;;;967764;147;27396;-74
2021/12/20 01:28:23;;;;;;;5.27;3.20;;;9.80;86.40;;;;;;965154;147;27290;-74
2021/12/20 01:30:49;;;;;;;3.47;3.17;;;9.80;86.50;;;;;;972612;147;27778;-74
2021/12/20 01:33:16;;;;;;;2.80;2.50;;;9.80;86.50;;;;;;954751;149;27816;-74
2021/12/20 01:35:42;;;;;;;3.63;2.53;;;9.80;86.40;;;;;;966755;147;27388;-74
2021/12/20 01:38:09;;;;;;;3.20;2.90;;;9.80;86.40;;;;;;963747;147;27305;-74
2021/12/20 01:40:36;;;;;;;3.43;3.03;;;9.80;86.40;;;;;;962250;146;27308;-74
2021/12/20 01:43:02;;;;;;;4.73;3.67;;;9.80;86.40;;;;;;953347;147;27307;-74
2021/12/20 01:45:29;;;;;;;3.10;2.80;;;9.80;86.20;;;;;;950203;149;27380;-74
2021/12/20 01:48:08;;;;;;;3.50;3.20;;;9.70;86.20;;;;;;967038;147;27322;-74
2021/12/20 01:53:18;;;;;;;3.77;3.37;;;9.70;86.40;;;;;;966935;146;27330;-74
2021/12/20 01:55:45;;;;;;;4.87;3.80;;;9.60;86.40;;;;;;969772;146;27988;-74
2021/12/20 01:58:12;;;;;;;5.20;3.80;;;9.60;86.50;;;;;;973109;146;27725;-74
2021/12/20 02:00:48;;;;;;;4.53;3.87;;;9.60;85.80;;;;;;974559;146;27282;-74
2021/12/20 02:03:04;;;;;;;4.53;3.80;;;9.60;86.70;;;;;;971126;146;27365;-74
2021/12/20 02:05:50;;;;;;;4.20;3.50;;;9.60;86.80;;;;;;976717;146;27292;-74
2021/12/20 02:08:21;;;;;;;3.70;3.40;;;9.60;86.80;;;;;;969227;146;27377;-74
2021/12/20 02:10:41;;;;;;;4.20;3.80;;;9.60;87.00;;;;;;975105;145;27399;-74
2021/12/20 02:13:08;;;;;;;3.33;3.03;;;9.60;87.00;;;;;;974474;146;27292;-74
2021/12/20 02:15:34;;;;;;;4.33;3.67;;;9.60;87.10;;;;;;970907;146;27421;-74
2021/12/20 02:18:01;;;;;;;4.10;3.30;;;9.60;87.30;;;;;;975826;146;27345;-74
2021/12/20 02:20:30;;;;;;;3.07;2.87;;;9.60;87.30;;;;;;973202;146;27304;-74
2021/12/20 02:22:57;;;;;;;4.03;3.27;;;9.60;87.30;;;;;;970683;145;27347;-74
2021/12/20 02:25:26;;;;;;;4.23;3.83;;;9.60;87.40;;;;;;973629;146;27340;-74
2021/12/20 02:27:53;;;;;;;5.20;3.83;;;9.60;87.40;;;;;;966910;146;27338;-74
2021/12/20 02:38:14;;;;;;;4.40;3.27;;;9.60;87.50;;;;;;933864;152;27363;-74
2021/12/20 02:40:41;;;;;;;3.20;2.90;;;9.50;87.50;;;;;;974548;145;27312;-74
2021/12/20 02:43:11;;;;;;;3.40;3.10;;;9.50;88.30;;;;;;964474;148;27428;-74
2021/12/20 02:45:37;;;;;;;3.40;3.10;;;9.50;87.60;;;;;;974812;146;27769;-74
2021/12/20 02:48:01;;;;;;;4.10;3.70;;;9.50;87.70;;;;;;979695;146;27393;-74
2021/12/20 02:50:27;;;;;;;3.57;3.07;;;9.50;87.70;;;;;;968707;146;27873;-74
2021/12/20 02:52:54;;;;;;;3.47;3.17;;;9.50;87.70;;;;;;971874;146;27309;-74
2021/12/20 02:55:20;;;;;;;3.47;3.13;;;9.50;87.70;;;;;;980141;146;27292;-74
2021/12/20 02:57:47;;;;;;;3.67;3.27;;;9.50;87.70;;;;;;971666;146;27468;-74
2021/12/20 03:00:14;;;;;;;3.10;2.80;;;9.50;87.70;;;;;;972344;146;27377;-74
2021/12/20 03:02:40;;;;;;;4.33;3.17;;;9.50;87.70;;;;;;968898;146;27311;-74
2021/12/20 03:05:07;;;;;;;5.60;3.20;;;9.50;87.80;;;;;;973283;145;27266;-74
2021/12/20 03:07:42;;;;;;;3.37;3.07;;;9.40;87.70;;;;;;970219;146;27377;-74
2021/12/20 03:10:03;;;;;;;3.73;3.33;;;9.40;87.80;;;;;;970278;146;27456;-74
2021/12/20 03:12:29;;;;;;;3.57;3.27;;;9.40;87.80;;;;;;963678;148;28384;-74
2021/12/20 03:14:59;;;;;;;4.73;3.33;;;9.40;88.00;;;;;;962584;148;27411;-74
2021/12/20 03:17:20;;;;;;;3.63;3.33;;;9.40;88.00;;;;;;972381;144;27272;-74
2021/12/20 03:19:49;;;;;;;3.87;3.33;;;9.40;88.10;;;;;;972622;146;27285;-74
2021/12/20 03:22:17;;;;;;;3.47;3.17;;;9.30;88.10;;;;;;971202;146;27292;-74
2021/12/20 03:24:45;;;;;;;3.70;3.13;;;9.30;88.20;;;;;;971435;146;27342;-72
2021/12/20 03:27:11;;;;;;;3.13;2.87;;;9.30;88.20;;;;;;970278;146;27401;-73
2021/12/20 03:29:38;;;;;;;3.97;3.23;;;9.30;88.40;;;;;;967696;146;27337;-73
2021/12/20 03:32:05;;;;;;;3.30;3.00;;;9.30;88.50;;;;;;971582;146;27901;-73
2021/12/20 03:34:31;;;;;;;3.40;3.10;;;9.30;88.70;;;;;;966523;146;27262;-73
2021/12/20 03:36:58;;;;;;;3.77;3.40;;;9.30;88.70;;;;;;969128;146;27835;-72
2021/12/20 03:39:24;;;;;;;3.70;3.40;;;9.30;88.80;;;;;;972273;146;27343;-73
2021/12/20 03:41:51;;;;;;;3.53;2.97;;;9.30;88.80;;;;;;970600;146;27398;-73
2021/12/20 03:44:18;;;;;;;3.70;3.33;;;9.30;88.80;;;;;;967786;146;27358;-72
2021/12/20 03:46:44;;;;;;;3.80;3.37;;;9.30;88.90;;;;;;968847;146;27400;-73
2021/12/20 03:49:11;;;;;;;4.23;3.23;;;9.30;88.90;;;;;;968361;146;27306;-73
2021/12/20 03:51:37;;;;;;;4.03;3.63;;;9.30;88.90;;;;;;973746;146;27451;-73
2021/12/20 03:54:04;;;;;;;3.90;3.50;;;9.20;88.60;;;;;;970324;146;27309;-73
2021/12/20 03:56:30;;;;;;;4.90;4.10;;;9.20;88.60;;;;;;968119;146;27437;-72
2021/12/20 03:58:57;;;;;;;4.70;4.20;;;9.20;88.60;;;;;;967824;146;27360;-73
2021/12/20 04:01:25;;;;;;;4.37;3.70;;;9.20;88.60;;;;;;966923;145;27922;-72
2021/12/20 04:03:50;;;;;;;5.50;3.90;;;9.20;88.60;;;;;;968896;146;27297;-73
2021/12/20 04:06:17;;;;;;;5.27;3.83;;;9.10;88.50;;;;;;969082;146;27661;-73
2021/12/20 04:08:43;;;;;;;5.27;3.40;;;9.10;88.50;;;;;;971096;146;27380;-73
2021/12/20 04:11:10;;;;;;;5.50;4.07;;;9.10;88.60;;;;;;974141;146;27312;-73
2021/12/20 04:13:37;;;;;;;5.40;4.27;;;9.00;88.60;;;;;;972780;146;27324;-73
2021/12/20 04:16:03;;;;;;;4.57;4.07;;;9.00;88.60;;;;;;969032;146;27345;-73
2021/12/20 04:18:30;;;;;;;4.93;4.53;;;9.00;88.60;;;;;;970858;146;27308;-73
2021/12/20 04:20:56;;;;;;;5.67;4.80;;;9.00;88.80;;;;;;973844;146;27387;-72
2021/12/20 04:23:23;;;;;;;4.40;4.00;;;9.00;88.90;;;;;;970356;146;27447;-73
2021/12/20 04:25:49;;;;;;;7.40;4.10;;;8.90;89.70;;;;;;968523;146;27285;-73
2021/12/20 04:28:19;;;;;;;5.40;4.40;;;8.90;88.80;;;;;;969949;146;27348;-73
2021/12/20 04:30:46;;;;;;;3.90;3.50;;;8.90;88.90;;;;;;970694;145;27298;-73
2021/12/20 04:33:12;;;;;;;4.23;3.53;;;8.90;88.80;;;;;;969739;145;27289;-73
2021/12/20 04:35:41;;;;;;;5.33;3.93;;;8.90;88.80;;;;;;970983;146;27436;-73
2021/12/20 04:38:09;;;;;;;5.07;3.60;;;8.90;88.80;;;;;;967919;146;27291;-73
2021/12/20 04:40:35;;;;;;;3.97;2.90;;;8.80;88.70;;;;;;968771;146;27691;-73
2021/12/20 04:43:01;;;;;;;5.77;3.20;;;8.80;88.70;;;;;;968735;146;27408;-73
2021/12/20 04:45:28;;;;;;;6.70;3.00;;;8.80;88.60;;;;;;973139;146;27357;-73
2021/12/20 04:47:54;;;;;;;6.10;3.43;;;8.80;88.50;;;;;;968736;146;27277;-73
2021/12/20 04:50:21;;;;;;;8.17;3.53;;;8.80;88.50;;;;;;969263;146;27751;-73
2021/12/20 04:52:47;;;;;;;6.13;2.90;;;8.80;88.30;;;;;;961373;147;27309;-73
2021/12/20 04:55:14;;;;;;;3.50;3.20;;;8.80;88.30;;;;;;961077;147;27596;-73
2021/12/20 04:57:41;;;;;;;6.10;3.10;;;8.70;88.00;;;;;;963680;147;27297;-73
2021/12/20 05:00:07;;;;;;;7.27;3.53;;;8.70;88.00;;;;;;960746;147;27300;-73
2021/12/20 05:02:34;;;;;;;5.17;3.43;;;8.70;87.80;;;;;;965286;147;27328;-72
2021/12/20 05:05:00;;;;;;;7.97;3.60;;;8.60;87.60;;;;;;963076;147;27401;-72
2021/12/20 05:07:27;;;;;;;5.90;3.63;;;8.60;87.50;;;;;;961540;147;27286;-73
2021/12/20 05:10:00;;;;;;;5.93;3.10;;;8.50;87.40;;;;;;968742;147;27853;-73
2021/12/20 05:12:29;;;;;;;5.10;3.63;;;8.40;87.40;;;;;;960115;146;27301;-73
2021/12/20 05:14:55;;;;;;;7.73;3.40;;;8.30;87.20;;;;;;967940;146;27420;-73
2021/12/20 05:17:22;;;;;;;4.87;3.50;;;8.20;87.10;;;;;;961868;147;28246;-73
2021/12/20 05:19:49;;;;;;;4.63;2.93;;;8.10;87.10;;;;;;960297;147;27292;-74
2021/12/20 05:22:18;;;;;;;4.70;3.40;;;8.00;86.90;;;;;;963777;147;27282;-75
2021/12/20 05:24:44;;;;;;;6.73;3.53;;;7.90;86.90;;;;;;959717;147;27282;-75
2021/12/20 05:27:11;;;;;;;3.20;2.80;;;7.80;87.00;;;;;;959881;146;27345;-75
2021/12/20 05:29:37;;;;;;;5.53;3.40;;;7.70;87.10;;;;;;968011;147;27329;-75
2021/12/20 05:32:07;;;;;;;4.40;2.83;;;7.50;87.10;;;;;;971023;147;27755;-75
2021/12/20 05:34:33;;;;;;;2.23;2.07;;;7.40;87.30;;;;;;957990;149;27312;-74
2021/12/20 05:37:00;;;;;;;2.90;2.33;;;7.30;87.50;;;;;;958654;147;27309;-75
2021/12/20 05:39:26;;;;;;;5.93;2.60;;;7.20;87.60;;;;;;965867;147;27301;-75
2021/12/20 05:41:53;;;;;;;2.83;2.53;;;7.10;87.80;;;;;;965728;147;27332;-74
2021/12/20 05:44:19;;;;;;;6.67;3.23;;;7.00;88.00;;;;;;962809;147;28177;-75
2021/12/20 05:46:46;;;;;;;6.33;3.10;;;6.90;88.20;;;;;;962338;147;27826;-75
2021/12/20 05:49:13;;;;;;;5.33;2.57;;;6.80;88.50;;;;;;961789;147;27360;-74
2021/12/20 05:51:39;;;;;;;4.10;3.40;;;6.70;88.50;;;;;;964254;146;27413;-75
2021/12/20 05:54:06;;;;;;;2.70;2.30;;;6.60;88.70;;;;;;965349;147;27320;-75
2021/12/20 05:56:32;;;;;;;5.03;3.00;;;6.50;88.70;;;;;;967505;146;27354;-75
2021/12/20 05:58:59;;;;;;;3.43;2.50;;;6.50;88.90;;;;;;967744;147;27318;-74
2021/12/20 06:01:26;;;;;;;2.80;2.43;;;6.40;89.00;;;;;;966176;147;27414;-75
2021/12/20 06:03:52;;;;;;;5.33;2.90;;;6.30;89.20;;;;;;960520;147;28854;-75
2021/12/20 06:06:19;;;;;;;5.07;2.50;;;6.20;89.30;;;;;;967825;147;27312;-75
2021/12/20 06:08:45;;;;;;;4.20;2.53;;;6.20;89.50;;;;;;962832;147;27309;-75
2021/12/20 06:11:13;;;;;;;5.00;2.63;;;6.10;89.60;;;;;;966589;147;27688;-74
2021/12/20 06:13:39;;;;;;;3.83;2.77;;;6.00;89.90;;;;;;962068;145;27810;-75
2021/12/20 06:16:05;;;;;;;5.60;3.00;;;6.00;90.00;;;;;;961832;147;27302;-75
2021/12/20 06:18:32;;;;;;;4.53;3.30;;;5.90;90.00;;;;;;966435;147;27349;-75
2021/12/20 06:20:58;;;;;;;7.37;3.10;;;5.90;90.20;;;;;;963147;147;27300;-75
2021/12/20 06:23:25;;;;;;;5.90;3.63;;;5.80;90.20;;;;;;964005;147;27776;-75
2021/12/20 06:25:51;;;;;;;6.57;3.63;;;5.80;90.30;;;;;;967300;146;27269;-75
2021/12/20 06:28:18;;;;;;;4.77;3.67;;;5.70;90.30;;;;;;963510;147;27300;-75
2021/12/20 06:30:48;;;;;;;6.37;3.23;;;5.70;90.30;;;;;;965168;147;27308;-75
2021/12/20 06:33:14;;;;;;;4.73;2.67;;;5.60;90.30;;;;;;975941;146;27445;-74
2021/12/20 06:35:41;;;;;;;3.57;2.90;;;5.50;90.30;;;;;;968598;147;27338;-75
2021/12/20 06:38:09;;;;;;;6.10;3.37;;;5.50;90.40;;;;;;971460;147;27293;-75
2021/12/20 06:40:34;;;;;;;4.07;3.47;;;5.40;90.40;;;;;;965454;145;27396;-75
2021/12/20 06:43:00;;;;;;;4.97;2.67;;;5.40;90.50;;;;;;967304;147;27935;-75
2021/12/20 06:45:30;;;;;;;5.13;2.50;;;5.30;90.50;;;;;;955972;149;27318;-75
2021/12/20 06:47:54;;;;;;;4.47;2.53;;;5.30;90.60;;;;;;963547;147;27292;-74
2021/12/20 06:50:20;;;;;;;9.27;3.40;;;5.20;90.60;;;;;;964239;147;27293;-75
2021/12/20 06:52:47;;;;;;;6.43;3.80;;;5.20;90.70;;;;;;936643;151;27373;-75
2021/12/20 06:55:13;;;;;;;4.07;2.97;;;5.10;90.70;;;;;;955836;146;27291;-75
2021/12/20 06:57:40;;;;;;;5.63;3.93;;;5.10;90.80;;;;;;951265;149;27278;-75
2021/12/20 07:00:08;;;;;;;4.47;3.10;;;5.00;90.80;;;;;;938092;152;27849;-76
2021/12/20 07:02:34;;;;;;;9.00;3.53;;;5.00;90.80;;;;;;942225;147;27347;-74
2021/12/20 07:05:01;;;;;;;5.53;3.37;;;4.90;90.90;;;;;;943541;149;27330;-75
2021/12/20 07:07:28;;;;;;;7.53;2.97;;;4.90;90.90;;;;;;937966;149;27392;-74
2021/12/20 07:09:54;;;;;;;4.90;2.87;;;4.90;91.00;;;;;;945057;149;27417;-75
2021/12/20 07:12:21;;;;;;;5.40;2.97;;;4.80;91.00;;;;;;948934;149;27368;-76
2021/12/20 07:14:50;;;;;;;6.03;3.07;;;4.80;91.10;;;;;;934549;152;27405;-76
2021/12/20 07:17:14;;;;;;;6.17;3.60;;;4.70;91.10;;;;;;960756;146;27294;-76
2021/12/20 07:19:40;;;;;;;6.30;3.23;;;4.70;91.20;;;;;;964627;147;27960;-76
2021/12/20 07:22:07;;;;;;;7.53;3.33;;;4.70;91.30;;;;;;962861;147;27268;-76
2021/12/20 07:24:34;;;;;;;7.80;3.03;;;4.60;91.30;;;;;;961096;147;27298;-76
2021/12/20 07:27:00;;;;;;;6.00;2.80;;;4.60;91.40;;;;;;964755;146;27263;-76
2021/12/20 07:29:27;;;;;;;5.47;2.47;;;4.60;91.50;;;;;;971124;147;27298;-76
2021/12/20 07:31:53;;;;;;;6.70;3.07;;;4.60;91.50;;;;;;963058;147;27813;-76
2021/12/20 07:34:20;;;;;;;5.70;2.93;;;4.60;91.50;;;;;;967543;147;27347;-76
2021/12/20 07:36:47;;;;;;;3.93;3.07;;;4.60;91.60;;;;;;968599;147;27369;-76
2021/12/20 07:39:13;;;;;;;5.77;2.73;;;4.60;91.60;;;;;;959865;147;27359;-76
2021/12/20 07:41:40;;;;;;;5.53;2.93;;;4.50;91.60;;;;;;968069;147;27286;-76
2021/12/20 07:44:06;;;;;;;4.07;2.60;;;4.60;91.60;;;;;;961463;147;27335;-76
2021/12/20 07:46:36;;;;;;;4.67;2.93;;;4.50;91.70;;;;;;963680;147;27385;-76
2021/12/20 07:49:02;;;;;;;5.00;2.27;;;4.50;91.80;;;;;;959172;147;28681;-75
2021/12/20 07:51:29;;;;;;;4.60;2.53;;;4.60;91.90;;;;;;961491;147;27310;-75
2021/12/20 07:53:55;;;;;;;6.20;2.50;;;4.60;92.00;;;;;;960396;147;27233;-75
2021/12/20 07:56:22;;;;;;;4.20;2.60;;;4.60;92.00;;;;;;964687;146;27422;-75
2021/12/20 07:58:48;;;;;;;5.40;2.50;;;4.60;92.10;;;;;;965480;147;27327;-75
2021/12/20 08:01:16;;;;;;;6.17;3.20;;;4.70;92.40;;;;;;966121;147;27855;-75
2021/12/20 08:03:42;;;;;;;4.87;2.50;;;4.90;93.10;;;;;;971798;147;27602;-75
2021/12/20 08:06:08;;;;;;;4.13;2.53;;;5.10;93.80;;;;;;966593;146;27293;-75
2021/12/20 08:08:35;;;;;;;3.53;2.50;;;5.30;94.00;;;;;;961687;146;27291;-75
2021/12/20 08:11:01;;;;;;;4.17;2.17;;;5.50;93.80;;;;;;966105;147;27290;-75
2021/12/20 08:13:28;;;;;;;4.97;2.43;;;5.80;93.50;;;;;;961383;147;27289;-75
2021/12/20 08:15:55;;;;;;;3.47;2.33;;;5.90;93.00;;;;;;965285;147;27443;-75
2021/12/20 08:18:21;;;;;;;4.07;2.07;;;6.10;92.60;;;;;;961713;146;27832;-75
2021/12/20 08:20:48;;;;;;;6.90;2.37;;;6.10;92.10;;;;;;962919;147;27314;-75
2021/12/20 08:23:14;;;;;;;7.60;2.67;;;6.20;91.70;;;;;;966970;147;27702;-75
2021/12/20 08:25:42;;;;;;;7.27;2.80;;;6.20;91.30;;;;;;959365;147;27314;-75
2021/12/20 08:28:07;;;;;;;5.93;3.10;;;6.20;91.10;;;;;;964521;147;27360;-75
2021/12/20 08:30:34;;;;;;;6.60;2.63;;;6.20;90.90;;;;;;963402;147;28257;-75
2021/12/20 08:33:01;;;;;;;4.97;2.57;;;6.20;90.80;;;;;;961571;147;27338;-75
2021/12/20 08:35:27;;;;;;;7.77;2.63;;;6.20;90.80;;;;;;963542;146;27872;-75
2021/12/20 08:37:54;;;;;;;4.27;2.40;;;6.10;90.70;;;;;;963253;147;27319;-75
2021/12/20 08:40:21;;;;;;;3.83;2.53;;;6.10;90.70;;;;;;965507;146;27302;-75
2021/12/20 08:42:50;;;;;;;4.33;2.77;;;6.10;90.80;;;;;;958153;149;27335;-75
2021/12/20 08:45:16;;;;;;;8.03;2.50;;;6.00;90.70;;;;;;942377;149;27359;-75
2021/12/20 08:47:43;;;;;;;5.70;2.87;;;6.00;90.80;;;;;;941598;151;27351;-75
2021/12/20 08:50:10;;;;;;;7.13;2.60;;;6.00;90.90;;;;;;934376;151;27354;-74
2021/12/20 08:52:36;;;;;;;7.23;2.70;;;6.00;90.90;;;;;;951901;147;27412;-75
2021/12/20 08:55:03;;;;;;;8.33;2.60;;;6.00;90.90;;;;;;962569;147;27349;-75
2021/12/20 08:57:32;;;;;;;4.47;2.53;;;6.00;91.10;;;;;;961692;146;27913;-75
2021/12/20 08:59:59;;;;;;;7.40;3.03;;;6.10;91.20;;;;;;958923;147;27319;-75
2021/12/20 09:02:25;;;;;;;7.97;3.17;;;6.10;91.00;;;;;;965964;147;27336;-75
2021/12/20 09:04:52;;;;;;;4.33;2.83;;;6.10;91.00;;;;;;959980;147;27667;-74
2021/12/20 09:07:18;;;;;;;5.67;2.40;;;6.10;90.90;;;;;;964897;146;27286;-75
2021/12/20 09:09:47;;;;;;;7.47;3.20;;;6.10;90.80;;;;;;960175;147;27382;-74
2021/12/20 09:12:11;;;;;;;6.87;2.60;;;6.20;90.80;;;;;;963849;147;27225;-74
2021/12/20 09:14:38;;;;;;;6.30;2.97;;;6.20;90.70;;;;;;961975;147;27266;-74
2021/12/20 09:17:05;;;;;;;7.70;2.90;;;6.20;90.70;;;;;;959306;147;27331;-74
2021/12/20 09:19:34;;;;;;;8.53;3.57;;;6.20;90.70;;;;;;960047;147;27405;-74
2021/12/20 09:21:58;;;;;;;7.80;2.90;;;6.20;90.80;;;;;;962353;147;27736;-74
2021/12/20 09:24:24;;;;;;;5.30;2.83;;;6.20;90.80;;;;;;956504;147;27289;-74
2021/12/20 09:26:51;;;;;;;7.70;2.90;;;6.20;90.80;;;;;;966206;147;27371;-74
2021/12/20 09:29:18;;;;;;;5.73;3.17;;;6.20;90.80;;;;;;962943;147;27350;-74
2021/12/20 09:31:44;;;;;;;9.23;3.10;;;6.20;90.80;;;;;;963007;146;27309;-74
2021/12/20 09:34:11;;;;;;;4.93;2.73;;;6.20;90.80;;;;;;965037;146;27333;-74
2021/12/20 09:36:37;;;;;;;9.27;4.00;;;6.20;90.80;;;;;;962124;147;27353;-74
2021/12/20 09:39:10;;;;;;;6.60;2.60;;;6.30;90.80;;;;;;963770;147;27313;-74
2021/12/20 09:44:09;;;;;;;6.10;2.27;;;6.30;90.90;;;;;;965242;147;27289;-74
2021/12/20 09:46:35;;;;;;;7.27;2.43;;;6.30;90.90;;;;;;962875;147;27250;-74
2021/12/20 09:49:02;;;;;;;5.00;2.57;;;6.30;90.90;;;;;;962071;146;27250;-74
2021/12/20 09:51:28;;;;;;;6.87;2.60;;;6.40;90.60;;;;;;965962;146;27371;-74
2021/12/20 09:53:55;;;;;;;6.60;2.90;;;6.40;90.90;;;;;;965725;146;27331;-74
2021/12/20 09:56:22;;;;;;;7.13;2.50;;;6.40;90.90;;;;;;976859;144;27449;-74
2021/12/20 09:58:51;;;;;;;5.23;2.83;;;6.40;91.00;;;;;;981411;145;27300;-74
2021/12/20 10:01:17;;;;;;;6.93;2.90;;;6.50;91.00;;;;;;983198;145;27305;-74
2021/12/20 10:03:44;;;;;;;10.77;3.30;;;6.50;90.90;;;;;;985130;145;27416;-74
2021/12/20 10:06:11;;;;;;;4.43;2.30;;;6.60;90.90;;;;;;982939;144;27319;-74
2021/12/20 10:08:49;;;;;;;7.70;3.13;;;6.60;90.80;;;;;;983067;144;27737;-74
2021/12/20 10:11:07;;;;;;;7.63;2.77;;;6.60;90.70;;;;;;981986;144;27314;-74
2021/12/20 10:13:36;;;;;;;7.00;3.03;;;6.70;90.70;;;;;;979505;145;27743;-74
2021/12/20 10:16:03;;;;;;;5.03;2.70;;;6.70;90.70;;;;;;983932;145;27291;-74
2021/12/20 10:18:30;;;;;;;6.57;2.93;;;6.70;90.60;;;;;;970284;147;27327;-74
2021/12/20 10:20:56;;;;;;;7.47;3.27;;;6.80;90.70;;;;;;966807;147;27324;-74
2021/12/20 10:23:31;;;;;;;8.17;2.77;;;6.90;90.70;;;;;;973421;145;27372;-74
2021/12/20 10:26:01;;;;;;;7.63;2.93;;;6.90;90.60;;;;;;988881;145;27353;-73
2021/12/20 10:28:33;;;;;;;5.70;2.33;;;7.00;90.50;;;;;;982597;145;27221;-74
2021/12/20 10:30:59;;;;;;;7.63;2.57;;;7.10;90.40;;;;;;987380;145;27381;-73
2021/12/20 10:33:26;;;;;;;6.27;2.40;;;7.20;90.30;;;;;;982077;145;27399;-74
2021/12/20 10:35:56;;;;;;;10.53;3.17;;;7.20;90.10;;;;;;984051;145;27364;-74
2021/12/20 10:38:40;;;;;;;6.93;3.07;;;7.30;90.00;;;;;;975927;147;27321;-74
2021/12/20 10:41:19;;;;;;;6.23;2.43;;;7.30;89.80;;;;;;973110;147;27403;-73
2021/12/20 10:43:50;;;;;;;3.40;2.23;;;7.40;89.50;;;;;;958736;150;27659;-74
2021/12/20 10:46:17;;;;;;;7.77;2.40;;;7.40;89.20;;;;;;945723;149;27342;-74
2021/12/20 10:48:43;;;;;;;9.77;2.97;;;7.40;88.90;;;;;;975231;145;27778;-74
2021/12/20 10:51:16;;;;;;;9.17;2.80;;;7.50;88.70;;;;;;980862;145;27348;-73
2021/12/20 10:53:46;;;;;;;5.57;2.67;;;7.50;88.40;;;;;;984064;145;27282;-74
2021/12/20 10:56:12;;;;;;;4.50;2.80;;;7.60;88.20;;;;;;962709;147;27941;-74
2021/12/20 10:58:38;;;;;;;10.63;2.80;;;7.60;88.00;;;;;;965274;147;27251;-74
2021/12/20 11:01:38;;;;;;;7.97;2.40;;;7.70;87.70;;;;;;965204;146;27285;-74
2021/12/20 11:03:58;;;;;;;6.27;2.43;;;7.60;87.30;;;;;;953214;149;27428;-73
2021/12/20 11:06:26;;;;;;;5.37;2.47;;;7.70;87.20;;;;;;969978;147;27305;-74
2021/12/20 11:09:07;;;;;;;8.07;3.07;;;7.70;87.10;;;;;;961250;147;27772;-74
2021/12/20 11:11:33;;;;;;;7.57;2.70;;;7.70;86.70;;;;;;952709;149;27320;-74
2021/12/20 11:13:59;;;;;;;5.97;2.30;;;7.70;86.60;;;;;;968652;147;27290;-74
2021/12/20 11:16:27;;;;;;;8.07;2.53;;;7.80;86.40;;;;;;946840;147;27321;-73
2021/12/20 11:19:07;;;;;;;7.83;2.30;;;7.80;86.30;;;;;;948683;149;27288;-73
2021/12/20 11:21:37;;;;;;;5.93;2.80;;;7.80;86.10;;;;;;939002;151;27434;-74
2021/12/20 11:24:03;;;;;;;4.23;2.33;;;7.80;85.70;;;;;;963492;147;27367;-74
2021/12/20 11:26:31;;;;;;;7.50;2.80;;;7.90;85.70;;;;;;974919;146;27258;-74
2021/12/20 11:28:56;;;;;;;6.90;2.80;;;7.90;85.60;;;;;;972559;146;27292;-73
2021/12/20 11:31:23;;;;;;;5.77;2.80;;;7.90;85.00;;;;;;962399;146;27326;-74
2021/12/20 11:33:49;;;;;;;6.40;2.20;;;7.90;84.90;;;;;;950983;149;27328;-74
2021/12/20 11:36:16;;;;;;;4.83;2.23;;;7.90;84.70;;;;;;928790;151;27275;-73
2021/12/20 11:38:43;;;;;;;6.27;2.53;;;7.90;84.40;;;;;;953082;149;27811;-74
2021/12/20 11:41:09;;;;;;;6.67;2.73;;;7.90;84.20;;;;;;955901;149;27303;-73
2021/12/20 11:43:36;;;;;;;9.47;2.77;;;7.90;84.10;;;;;;958517;149;27355;-73
2021/12/20 11:46:02;;;;;;;9.10;3.33;;;7.90;83.80;;;;;;961125;149;27310;-73
2021/12/20 11:48:29;;;;;;;9.83;3.60;;;7.90;83.80;;;;;;947492;151;27336;-74
2021/12/20 11:50:56;;;;;;;8.57;3.03;;;8.00;83.50;;;;;;971860;146;27395;-73
2021/12/20 11:53:22;;;;;;;5.67;2.57;;;7.90;83.30;;;;;;961393;149;27416;-73
2021/12/20 11:55:52;;;;;;;9.90;3.97;;;8.00;83.20;;;;;;938028;151;27462;-73
2021/12/20 11:58:18;;;;;;;6.60;2.70;;;8.00;83.00;;;;;;939342;152;27368;-73
2021/12/20 12:00:48;;;;;;;8.03;2.83;;;8.00;82.60;;;;;;963553;147;27361;-73
2021/12/20 12:03:18;;;;;;;9.60;3.10;;;8.00;82.60;;;;;;959566;147;27268;-73
2021/12/20 12:05:50;;;;;;;4.13;2.47;;;8.00;82.60;;;;;;960230;149;27312;-73
2021/12/20 12:08:34;;;;;;;6.03;2.50;;;8.00;82.50;;;;;;962433;147;27396;-73
2021/12/20 12:11:10;;;;;;;8.83;2.30;;;8.00;82.40;;;;;;964291;146;27298;-73
2021/12/20 12:14:00;;;;;;;3.90;2.10;;;8.00;82.10;;;;;;967486;146;27382;-73
2021/12/20 12:18:53;;;;;;;5.57;2.23;;;8.00;81.90;;;;;;972335;147;27406;-73
2021/12/20 12:21:32;;;;;;;5.87;2.27;;;8.00;81.90;;;;;;962025;147;27313;-75
2021/12/20 12:24:01;;;;;;;3.70;1.67;;;8.00;81.70;;;;;;958564;149;27294;-74
2021/12/20 12:26:33;;;;;;;6.20;2.63;;;8.00;81.30;;;;;;971203;147;27462;-74
2021/12/20 12:29:00;;;;;;;6.20;2.17;;;8.00;81.20;;;;;;967258;146;27276;-74
2021/12/20 12:31:26;;;;;;;5.60;2.73;;;8.10;81.00;;;;;;965444;147;27301;-74
2021/12/20 12:34:11;;;;;;;8.80;2.40;;;8.10;80.80;;;;;;945188;149;27267;-74
2021/12/20 12:36:42;;;;;;;4.97;2.20;;;8.10;80.50;;;;;;953591;149;27334;-74
2021/12/20 12:39:13;;;;;;;3.60;1.90;;;8.10;80.20;;;;;;954023;149;27923;-75
2021/12/20 12:41:45;;;;;;;4.83;1.73;;;8.10;79.90;;;;;;935662;152;27414;-74
2021/12/20 12:44:17;;;;;;;4.83;1.37;;;8.10;78.20;;;;;;957014;149;27248;-74
2021/12/20 12:46:45;;;;;;;3.20;1.70;;;8.10;76.90;;;;;;956784;149;27310;-74
2021/12/20 12:49:20;;;;;;;3.80;1.30;;;8.10;76.80;;;;;;955154;149;27331;-75
2021/12/20 12:51:46;;;;;;;2.57;1.60;;;8.10;76.90;;;;;;962161;148;27334;-74
2021/12/20 12:54:18;;;;;;;2.90;1.60;;;8.10;76.80;;;;;;957307;149;27307;-74
2021/12/20 12:56:45;;;;;;;2.20;1.57;;;8.10;76.60;;;;;;959968;146;27417;-74
2021/12/20 12:59:19;;;;;;;6.63;2.27;;;8.10;76.60;;;;;;977020;145;27300;-74
2021/12/20 13:01:52;;;;;;;3.63;1.40;;;8.10;76.70;;;;;;972413;146;27374;-75
2021/12/20 13:04:18;;;;;;;3.97;1.90;;;8.10;76.70;;;;;;974011;147;27338;-75
2021/12/20 13:06:48;;;;;;;2.10;1.60;;;8.10;76.70;;;;;;973037;146;27278;-75
2021/12/20 13:09:14;;;;;;;3.97;2.00;;;8.10;76.70;;;;;;981290;146;27261;-75
2021/12/20 13:11:41;;;;;;;3.70;1.83;;;8.10;76.10;;;;;;977899;145;27296;-74
2021/12/20 13:14:10;;;;;;;5.67;2.10;;;8.10;76.10;;;;;;972511;146;27270;-74
2021/12/20 13:16:36;;;;;;;9.30;1.90;;;8.10;76.30;;;;;;966857;146;27311;-74